Terminal Aerodrome Forecast
Issued by NWS Charleston, WV

Current Version | Previous Version | Text Only | Print | Product List | Glossary Off
Versions: 1 2 3 4 5 6 7 8 9 10 11 12 13 14 15 16 17 18 19 20 21 22 23

000
FTUS41 KRLX 110909 AAA
TAFEKN
TAF AMD
KEKN 110909Z 1109/1206 27008G17KT P6SM OVC040
     FM111700 21005KT P6SM SCT200
     FM120500 20006KT P6SM BKN100=

USA.gov is the U.S. government's official web portal to all federal, state and local government web resources and services.